Decatur, Iowa
Current Conditions -  °F | °C
As of 11:53 PM on Tuesday 25 Nov 2014 (Local Time) from KLWD Reporting Station
Overcast Overcast  
Wind Chill: 24°   Ceiling: 9000
Heat Index: 32°   Visibility: 10mi
Dew Point: 17°   Wind: 9mph
Humidity: 54%   Direction: 160°SSE
Pressure: 29.96"   Gusts: NA
Location:  40.74°N, 93.84°W
Report Text: KLWD 260553Z AUTO 16008KT 10SM FEW065 OVC090 00/M08 A2996 RMK AO2 SLP159 T00001083 10000 21017 400281089 58019
Loading
Personal Weather Stations






























Interactive Weather Map New forecast layout! Learn more

10-Day Weather Forecast

Advertisements
Track Severe Weather on mobile